Lesley Pg — MXUG5 — position and weather

sailwx.info

Track history (hours):
 
Tides and Currents Weather Stations Pressure Air Temp Water Temp Dewpoint Dewpoint Depression Visibility Wind Speed Wind Dir Waves Ship Positions

Lesley Pg

Last reported at 2016-Sep-25 21:28 UTC. Time now 2016-Sep-26 17:26 UTC.
Position N 18°01' W 063°05'.

Length 102 m; draft 6.2 m.

Type: Tanker. MMSI: 234910000.

Date/timePositionNaut miles runAvg speedWind from/ knotsBaromVisibWave heightAir tempDewpointWater temp
2016-Sep-25 21:28N 18°01' W 063°05'0 0.0
2016-Sep-25 17:28N 18°01' W 063°05'0 0.0
2016-Sep-25 16:31N 18°01' W 063°05'0 0.0
2016-Sep-25 15:31N 18°01' W 063°05'0 0.0
2016-Sep-25 14:34N 18°01' W 063°05'0 0.0
2016-Sep-25 12:34N 18°01' W 063°05'0 0.0
2016-Sep-25 11:33N 18°01' W 063°05'1 0.6
2016-Sep-25 10:32N 18°01' W 063°05'0 0.2
2016-Sep-25 09:29N 18°01' W 063°05'0 0.0
2016-Sep-25 07:28N 18°01' W 063°05'0 0.0
2016-Sep-25 04:32N 18°01' W 063°05'0 0.0
2016-Sep-25 00:27N 18°01' W 063°05'0 0.0
2016-Sep-24 22:13N 18°01' W 063°05'4 6.6
2016-Sep-24 21:33N 17°56' W 063°05'8111.2
2016-Sep-24 14:20N 16°39' W 062°37'  
2016-Sep-22 04:23N 10°19' W 061°30'1 0.2
2016-Sep-21 22:14N 10°19' W 061°29'0 0.0
2016-Sep-21 19:33N 10°19' W 061°29'0 0.0
2016-Sep-21 16:33N 10°19' W 061°29'1 0.2
2016-Sep-21 09:33N 10°19' W 061°30'0 0.0
2016-Sep-21 08:33N 10°19' W 061°30'0 0.0
2016-Sep-21 05:33N 10°19' W 061°30'0 0.0
2016-Sep-21 03:33N 10°19' W 061°30'0 0.0
2016-Sep-21 02:33N 10°19' W 061°30'32110.3
2016-Sep-19 19:33N 15°40' W 061°33'3210.0
2016-Sep-19 16:24N 16°11' W 061°30'0 0.0
2016-Sep-19 14:30N 16°11' W 061°30'0 0.0
2016-Sep-19 13:27N 16°11' W 061°30'0 0.0
2016-Sep-19 12:09N 16°11' W 061°30'0 0.0
2016-Sep-19 11:33N 16°11' W 061°30'6 2.8
2016-Sep-19 09:33N 16°06' W 061°29'17 8.7
2016-Sep-19 07:33N 15°55' W 061°44'4010.1
2016-Sep-19 03:33N 16°25' W 062°11'1010.1
2016-Sep-19 02:33N 16°33' W 062°18'17110.7
2016-Sep-18 10:33N 18°24' W 064°35'2 0.1
2016-Sep-17 18:26N 18°25' W 064°36'49 9.7
2016-Sep-17 13:23N 18°09' W 063°47'1012.2
2016-Sep-17 12:32N 18°07' W 063°37'2412.1
2016-Sep-17 10:31N 18°02' W 063°12'6 6.4
2016-Sep-17 09:32N 18°01' W 063°05'0 0.0
2016-Sep-17 08:32N 18°01' W 063°05'0 0.0
2016-Sep-17 07:32N 18°01' W 063°05'0 0.0
2016-Sep-17 05:24N 18°01' W 063°05'0 0.0
2016-Sep-17 04:23N 18°01' W 063°05'0 0.0
2016-Sep-17 00:30N 18°01' W 063°05'0 0.0
2016-Sep-16 17:32N 18°01' W 063°05'1 0.4
2016-Sep-16 15:33N 18°00' W 063°05'8710.9
2016-Sep-16 07:34N 16°41' W 062°26'6412.1
2016-Sep-16 02:17N 15°50' W 061°47'  
Track history (hours):
 
Tides and Currents Weather Stations Pressure Air Temp Water Temp Dewpoint Dewpoint Depression Visibility Wind Speed Wind Dir Waves Ship Positions

Lesley Pg

Last reported at 2016-Sep-25 21:28 UTC. Time now 2016-Sep-26 17:26 UTC.
Position N 18°01' W 063°05'.

Length 102 m; draft 6.2 m.

Type: Tanker. MMSI: 234910000.

Date/timePositionNaut miles runAvg speedWind from/ knotsBaromVisibWave heightAir tempDewpointWater temp
2016-Sep-25 21:28N 18°01' W 063°05'0 0.0
2016-Sep-25 17:28N 18°01' W 063°05'0 0.0
2016-Sep-25 16:31N 18°01' W 063°05'0 0.0
2016-Sep-25 15:31N 18°01' W 063°05'0 0.0
2016-Sep-25 14:34N 18°01' W 063°05'0 0.0
2016-Sep-25 12:34N 18°01' W 063°05'0 0.0
2016-Sep-25 11:33N 18°01' W 063°05'1 0.6
2016-Sep-25 10:32N 18°01' W 063°05'0 0.2
2016-Sep-25 09:29N 18°01' W 063°05'0 0.0
2016-Sep-25 07:28N 18°01' W 063°05'0 0.0
2016-Sep-25 04:32N 18°01' W 063°05'0 0.0
2016-Sep-25 00:27N 18°01' W 063°05'0 0.0
2016-Sep-24 22:13N 18°01' W 063°05'4 6.6
2016-Sep-24 21:33N 17°56' W 063°05'8111.2
2016-Sep-24 14:20N 16°39' W 062°37'  
2016-Sep-22 04:23N 10°19' W 061°30'1 0.2
2016-Sep-21 22:14N 10°19' W 061°29'0 0.0
2016-Sep-21 19:33N 10°19' W 061°29'0 0.0
2016-Sep-21 16:33N 10°19' W 061°29'1 0.2
2016-Sep-21 09:33N 10°19' W 061°30'0 0.0
2016-Sep-21 08:33N 10°19' W 061°30'0 0.0
2016-Sep-21 05:33N 10°19' W 061°30'0 0.0
2016-Sep-21 03:33N 10°19' W 061°30'0 0.0
2016-Sep-21 02:33N 10°19' W 061°30'32110.3
2016-Sep-19 19:33N 15°40' W 061°33'3210.0
2016-Sep-19 16:24N 16°11' W 061°30'0 0.0
2016-Sep-19 14:30N 16°11' W 061°30'0 0.0
2016-Sep-19 13:27N 16°11' W 061°30'0 0.0
2016-Sep-19 12:09N 16°11' W 061°30'0 0.0
2016-Sep-19 11:33N 16°11' W 061°30'6 2.8
2016-Sep-19 09:33N 16°06' W 061°29'17 8.7
2016-Sep-19 07:33N 15°55' W 061°44'4010.1
2016-Sep-19 03:33N 16°25' W 062°11'1010.1
2016-Sep-19 02:33N 16°33' W 062°18'17110.7
2016-Sep-18 10:33N 18°24' W 064°35'2 0.1
2016-Sep-17 18:26N 18°25' W 064°36'49 9.7
2016-Sep-17 13:23N 18°09' W 063°47'1012.2
2016-Sep-17 12:32N 18°07' W 063°37'2412.1
2016-Sep-17 10:31N 18°02' W 063°12'6 6.4
2016-Sep-17 09:32N 18°01' W 063°05'0 0.0
2016-Sep-17 08:32N 18°01' W 063°05'0 0.0
2016-Sep-17 07:32N 18°01' W 063°05'0 0.0
2016-Sep-17 05:24N 18°01' W 063°05'0 0.0
2016-Sep-17 04:23N 18°01' W 063°05'0 0.0
2016-Sep-17 00:30N 18°01' W 063°05'0 0.0
2016-Sep-16 17:32N 18°01' W 063°05'1 0.4
2016-Sep-16 15:33N 18°00' W 063°05'8710.9
2016-Sep-16 07:34N 16°41' W 062°26'6412.1
2016-Sep-16 02:17N 15°50' W 061°47'  

Dump ship's entire track history